Portada
METAR-TAF:

METAR-TAF

Aeroports :

Holland, Michigan, Estats Units d'Amèrica

latitud: 42-44-46N, longitud: 086-05-48W, altitud: 209 m

Observació

L'informe es va fer fa 11 minuts, a les 04:53 UTC
Vent 3 kt del Nord/Nord-Est
Temperatura 12°C
Humitat 88%
Pressió 1016 hPa
Visibilitat: 16.1 km
Cel clar

METAR: KBIV 250453Z AUTO 03003KT 10SM CLR 12/10 A2999 RMK AO2 SLP156 T01220100 401780111

Hora: 01:04 (05:04 UTC)


TAF: manca

Observacions i pronòstics meteorològics de més de 4000 aeroports (METAR i TAF).

Les estacions disponibles són els punts grocs i vermells al mapa.

Posi el ratolí al punt desitjat per veure el nom de l'estació.

Feu clic per veure les observacions i els pronòstics meteorològics.

Per canviar el mapa: feu clic els botons verds amb una creu de color negre per apropar; al botó verd amb un guió per allunyar la imatge; o en les fletxes verdes per a mapes adjacents.


METAR-TAF: